Belogorsk, Russia
Current Conditions -  °F | °C
As of 2:00 AM on Friday 19 Dec 2014 (Local Time) from UHBB Reporting Station
Light Snow Light Snow  
Wind Chill: -18°   Ceiling: Unl
Heat Index: -4°   Visibility: 1.9mi
Dew Point: -6°   Wind: 7mph
Humidity: 92%   Direction: 190°S
Pressure: 30.15"   Gusts: NA
Location:  50.92°N, 128.47°E
Report Text: UHBB 181700Z 19003MPS 140V240 3100 -SN NSC M20/M21 Q1021 NOSIGRMK QFE748/0998 36492045
Loading
Personal Weather Stations






























Interactive Weather Map New forecast layout! Learn more

10-Day Weather Forecast

Advertisements
Track Severe Weather on mobile